sensor_id;sensor_type;location;lat;lon;timestamp;P1;durP1;ratioP1;P2;durP2;ratioP2
69985;SDS011;57328;52.054;5.294;2022-11-20T00:00:20;16.60;;;7.13;;
69985;SDS011;57328;52.054;5.294;2022-11-20T00:02:47;15.68;;;6.75;;
69985;SDS011;57328;52.054;5.294;2022-11-20T00:05:17;17.23;;;6.97;;
69985;SDS011;57328;52.054;5.294;2022-11-20T00:07:44;16.77;;;7.13;;
69985;SDS011;57328;52.054;5.294;2022-11-20T00:10:11;20.15;;;7.63;;
69985;SDS011;57328;52.054;5.294;2022-11-20T00:12:39;13.98;;;5.72;;
69985;SDS011;57328;52.054;5.294;2022-11-20T00:15:06;17.30;;;7.18;;
69985;SDS011;57328;52.054;5.294;2022-11-20T00:17:34;16.52;;;6.55;;
69985;SDS011;57328;52.054;5.294;2022-11-20T00:20:01;15.57;;;7.10;;
69985;SDS011;57328;52.054;5.294;2022-11-20T00:22:28;15.25;;;6.75;;
69985;SDS011;57328;52.054;5.294;2022-11-20T00:24:55;17.33;;;7.80;;
69985;SDS011;57328;52.054;5.294;2022-11-20T00:27:23;16.52;;;7.13;;
69985;SDS011;57328;52.054;5.294;2022-11-20T00:29:51;13.20;;;6.38;;
69985;SDS011;57328;52.054;5.294;2022-11-20T00:32:18;17.88;;;7.60;;
69985;SDS011;57328;52.054;5.294;2022-11-20T00:34:45;15.48;;;6.80;;
69985;SDS011;57328;52.054;5.294;2022-11-20T00:37:12;17.70;;;7.07;;
69985;SDS011;57328;52.054;5.294;2022-11-20T00:39:40;17.30;;;7.30;;
69985;SDS011;57328;52.054;5.294;2022-11-20T00:42:07;18.48;;;8.20;;
69985;SDS011;57328;52.054;5.294;2022-11-20T00:44:34;16.75;;;6.90;;
69985;SDS011;57328;52.054;5.294;2022-11-20T00:47:01;19.33;;;7.20;;
69985;SDS011;57328;52.054;5.294;2022-11-20T00:49:28;18.08;;;7.40;;
69985;SDS011;57328;52.054;5.294;2022-11-20T00:51:56;19.98;;;7.70;;
69985;SDS011;57328;52.054;5.294;2022-11-20T00:54:23;16.63;;;6.85;;
69985;SDS011;57328;52.054;5.294;2022-11-20T00:56:52;17.85;;;6.57;;
69985;SDS011;57328;52.054;5.294;2022-11-20T00:59:19;16.13;;;7.20;;
69985;SDS011;57328;52.054;5.294;2022-11-20T01:01:47;15.07;;;6.35;;
69985;SDS011;57328;52.054;5.294;2022-11-20T01:04:14;14.63;;;5.70;;
69985;SDS011;57328;52.054;5.294;2022-11-20T01:06:41;14.77;;;6.50;;
69985;SDS011;57328;52.054;5.294;2022-11-20T01:09:12;16.60;;;6.78;;
69985;SDS011;57328;52.054;5.294;2022-11-20T01:11:41;16.35;;;6.72;;
69985;SDS011;57328;52.054;5.294;2022-11-20T01:14:12;16.73;;;7.25;;
69985;SDS011;57328;52.054;5.294;2022-11-20T01:16:41;14.88;;;6.80;;
69985;SDS011;57328;52.054;5.294;2022-11-20T01:19:12;15.82;;;7.15;;
69985;SDS011;57328;52.054;5.294;2022-11-20T01:21:44;16.90;;;7.38;;
69985;SDS011;57328;52.054;5.294;2022-11-20T01:24:12;14.80;;;6.45;;
69985;SDS011;57328;52.054;5.294;2022-11-20T01:26:40;14.65;;;6.78;;
69985;SDS011;57328;52.054;5.294;2022-11-20T01:29:15;16.52;;;6.88;;
69985;SDS011;57328;52.054;5.294;2022-11-20T01:31:43;15.57;;;6.90;;
69985;SDS011;57328;52.054;5.294;2022-11-20T01:34:12;14.90;;;6.40;;
69985;SDS011;57328;52.054;5.294;2022-11-20T01:36:40;16.70;;;7.03;;
69985;SDS011;57328;52.054;5.294;2022-11-20T01:39:12;17.30;;;6.38;;
69985;SDS011;57328;52.054;5.294;2022-11-20T01:41:40;12.23;;;5.20;;
69985;SDS011;57328;52.054;5.294;2022-11-20T01:44:48;16.92;;;6.72;;
69985;SDS011;57328;52.054;5.294;2022-11-20T01:47:17;17.52;;;6.70;;
69985;SDS011;57328;52.054;5.294;2022-11-20T01:49:50;16.45;;;6.32;;
69985;SDS011;57328;52.054;5.294;2022-11-20T01:57:17;14.50;;;6.50;;
69985;SDS011;57328;52.054;5.294;2022-11-20T01:59:47;15.02;;;5.78;;
69985;SDS011;57328;52.054;5.294;2022-11-20T02:02:16;16.38;;;6.78;;
69985;SDS011;57328;52.054;5.294;2022-11-20T02:04:44;14.32;;;6.15;;
69985;SDS011;57328;52.054;5.294;2022-11-20T02:07:11;14.57;;;6.63;;
69985;SDS011;57328;52.054;5.294;2022-11-20T02:09:38;17.77;;;7.88;;
69985;SDS011;57328;52.054;5.294;2022-11-20T02:12:05;17.80;;;7.30;;
69985;SDS011;57328;52.054;5.294;2022-11-20T02:14:53;16.38;;;6.80;;
69985;SDS011;57328;52.054;5.294;2022-11-20T02:17:20;14.75;;;6.10;;
69985;SDS011;57328;52.054;5.294;2022-11-20T02:19:47;15.68;;;6.40;;
69985;SDS011;57328;52.054;5.294;2022-11-20T02:22:17;13.85;;;6.05;;
69985;SDS011;57328;52.054;5.294;2022-11-20T02:24:46;13.32;;;6.18;;
69985;SDS011;57328;52.054;5.294;2022-11-20T02:27:14;16.08;;;6.50;;
69985;SDS011;57328;52.054;5.294;2022-11-20T02:29:52;14.48;;;5.85;;
69985;SDS011;57328;52.054;5.294;2022-11-20T02:32:24;13.35;;;5.47;;
69985;SDS011;57328;52.054;5.294;2022-11-20T02:34:52;13.50;;;5.95;;
69985;SDS011;57328;52.054;5.294;2022-11-20T02:37:20;14.65;;;5.82;;
69985;SDS011;57328;52.054;5.294;2022-11-20T02:39:47;18.88;;;7.07;;
69985;SDS011;57328;52.054;5.294;2022-11-20T02:42:15;17.27;;;6.95;;
69985;SDS011;57328;52.054;5.294;2022-11-20T02:44:43;13.52;;;5.45;;
69985;SDS011;57328;52.054;5.294;2022-11-20T02:47:10;16.63;;;6.80;;
69985;SDS011;57328;52.054;5.294;2022-11-20T02:49:37;13.60;;;4.60;;
69985;SDS011;57328;52.054;5.294;2022-11-20T02:52:04;14.13;;;5.57;;
69985;SDS011;57328;52.054;5.294;2022-11-20T02:54:32;15.38;;;6.00;;
69985;SDS011;57328;52.054;5.294;2022-11-20T02:56:59;15.88;;;6.72;;
69985;SDS011;57328;52.054;5.294;2022-11-20T02:59:26;15.93;;;6.18;;
69985;SDS011;57328;52.054;5.294;2022-11-20T03:01:54;15.48;;;6.15;;
69985;SDS011;57328;52.054;5.294;2022-11-20T03:04:21;16.63;;;7.45;;
69985;SDS011;57328;52.054;5.294;2022-11-20T03:06:48;17.25;;;7.22;;
69985;SDS011;57328;52.054;5.294;2022-11-20T03:09:16;13.60;;;5.57;;
69985;SDS011;57328;52.054;5.294;2022-11-20T03:11:43;17.23;;;6.97;;
69985;SDS011;57328;52.054;5.294;2022-11-20T03:14:10;16.27;;;6.78;;
69985;SDS011;57328;52.054;5.294;2022-11-20T03:16:37;13.52;;;5.90;;
69985;SDS011;57328;52.054;5.294;2022-11-20T03:19:06;15.00;;;6.25;;
69985;SDS011;57328;52.054;5.294;2022-11-20T03:21:34;17.90;;;6.88;;
69985;SDS011;57328;52.054;5.294;2022-11-20T03:24:01;16.80;;;6.90;;
69985;SDS011;57328;52.054;5.294;2022-11-20T03:26:28;18.17;;;7.05;;
69985;SDS011;57328;52.054;5.294;2022-11-20T03:29:00;14.25;;;6.40;;
69985;SDS011;57328;52.054;5.294;2022-11-20T03:31:28;15.25;;;6.43;;
69985;SDS011;57328;52.054;5.294;2022-11-20T03:33:56;17.42;;;7.53;;
69985;SDS011;57328;52.054;5.294;2022-11-20T03:36:24;18.55;;;7.55;;
69985;SDS011;57328;52.054;5.294;2022-11-20T03:38:52;16.95;;;7.25;;
69985;SDS011;57328;52.054;5.294;2022-11-20T03:41:23;15.27;;;6.43;;
69985;SDS011;57328;52.054;5.294;2022-11-20T03:43:51;14.43;;;5.93;;
69985;SDS011;57328;52.054;5.294;2022-11-20T03:46:18;14.82;;;6.00;;
69985;SDS011;57328;52.054;5.294;2022-11-20T03:48:46;16.13;;;6.10;;
69985;SDS011;57328;52.054;5.294;2022-11-20T03:51:21;15.48;;;6.32;;
69985;SDS011;57328;52.054;5.294;2022-11-20T03:53:48;16.60;;;6.82;;
69985;SDS011;57328;52.054;5.294;2022-11-20T03:56:17;15.63;;;5.82;;
69985;SDS011;57328;52.054;5.294;2022-11-20T03:58:44;17.13;;;6.85;;
69985;SDS011;57328;52.054;5.294;2022-11-20T04:01:16;14.60;;;5.57;;
69985;SDS011;57328;52.054;5.294;2022-11-20T04:03:43;17.45;;;6.57;;
69985;SDS011;57328;52.054;5.294;2022-11-20T04:06:13;14.95;;;5.65;;
69985;SDS011;57328;52.054;5.294;2022-11-20T04:08:41;15.20;;;6.10;;
69985;SDS011;57328;52.054;5.294;2022-11-20T04:13:36;16.02;;;6.15;;
69985;SDS011;57328;52.054;5.294;2022-11-20T04:16:04;13.75;;;6.13;;
69985;SDS011;57328;52.054;5.294;2022-11-20T04:18:31;13.77;;;5.78;;
69985;SDS011;57328;52.054;5.294;2022-11-20T04:20:58;14.98;;;6.22;;
69985;SDS011;57328;52.054;5.294;2022-11-20T04:23:26;12.07;;;5.32;;
69985;SDS011;57328;52.054;5.294;2022-11-20T04:25:54;12.98;;;5.82;;
69985;SDS011;57328;52.054;5.294;2022-11-20T04:28:21;17.00;;;6.80;;
69985;SDS011;57328;52.054;5.294;2022-11-20T04:30:48;15.45;;;5.88;;
69985;SDS011;57328;52.054;5.294;2022-11-20T04:33:16;14.82;;;6.55;;
69985;SDS011;57328;52.054;5.294;2022-11-20T04:35:43;13.88;;;6.22;;
69985;SDS011;57328;52.054;5.294;2022-11-20T04:38:13;15.73;;;6.70;;
69985;SDS011;57328;52.054;5.294;2022-11-20T04:40:40;14.60;;;6.15;;
69985;SDS011;57328;52.054;5.294;2022-11-20T04:43:07;12.15;;;5.22;;
69985;SDS011;57328;52.054;5.294;2022-11-20T04:45:34;13.68;;;5.35;;
69985;SDS011;57328;52.054;5.294;2022-11-20T04:48:01;12.40;;;5.05;;
69985;SDS011;57328;52.054;5.294;2022-11-20T04:50:29;17.67;;;6.50;;
69985;SDS011;57328;52.054;5.294;2022-11-20T04:52:56;15.15;;;6.28;;
69985;SDS011;57328;52.054;5.294;2022-11-20T04:55:23;13.35;;;5.80;;
69985;SDS011;57328;52.054;5.294;2022-11-20T04:57:50;13.57;;;5.47;;
69985;SDS011;57328;52.054;5.294;2022-11-20T05:00:18;16.00;;;6.57;;
69985;SDS011;57328;52.054;5.294;2022-11-20T05:02:45;14.05;;;5.50;;
69985;SDS011;57328;52.054;5.294;2022-11-20T05:05:12;16.98;;;6.68;;
69985;SDS011;57328;52.054;5.294;2022-11-20T05:07:39;17.13;;;6.28;;
69985;SDS011;57328;52.054;5.294;2022-11-20T05:10:07;12.55;;;4.88;;
69985;SDS011;57328;52.054;5.294;2022-11-20T05:12:34;17.55;;;7.10;;
69985;SDS011;57328;52.054;5.294;2022-11-20T05:15:02;12.30;;;4.78;;
69985;SDS011;57328;52.054;5.294;2022-11-20T05:17:30;14.43;;;6.13;;
69985;SDS011;57328;52.054;5.294;2022-11-20T05:19:57;14.65;;;6.00;;
69985;SDS011;57328;52.054;5.294;2022-11-20T05:22:24;13.15;;;5.25;;
69985;SDS011;57328;52.054;5.294;2022-11-20T05:24:51;15.60;;;6.00;;
69985;SDS011;57328;52.054;5.294;2022-11-20T05:27:19;15.82;;;5.70;;
69985;SDS011;57328;52.054;5.294;2022-11-20T05:29:46;13.90;;;6.30;;
69985;SDS011;57328;52.054;5.294;2022-11-20T05:32:13;15.25;;;5.60;;
69985;SDS011;57328;52.054;5.294;2022-11-20T05:34:40;12.88;;;5.40;;
69985;SDS011;57328;52.054;5.294;2022-11-20T05:37:07;15.32;;;6.28;;
69985;SDS011;57328;52.054;5.294;2022-11-20T05:39:34;16.13;;;5.68;;
69985;SDS011;57328;52.054;5.294;2022-11-20T05:42:02;12.40;;;5.32;;
69985;SDS011;57328;52.054;5.294;2022-11-20T05:44:47;13.48;;;5.45;;
69985;SDS011;57328;52.054;5.294;2022-11-20T05:47:15;15.02;;;6.20;;
69985;SDS011;57328;52.054;5.294;2022-11-20T05:49:42;12.98;;;5.13;;
69985;SDS011;57328;52.054;5.294;2022-11-20T05:52:09;15.20;;;6.95;;
69985;SDS011;57328;52.054;5.294;2022-11-20T05:54:36;15.18;;;6.57;;
69985;SDS011;57328;52.054;5.294;2022-11-20T05:57:03;12.15;;;4.72;;
69985;SDS011;57328;52.054;5.294;2022-11-20T05:59:31;12.07;;;5.03;;
69985;SDS011;57328;52.054;5.294;2022-11-20T06:01:58;15.95;;;6.13;;
69985;SDS011;57328;52.054;5.294;2022-11-20T06:04:25;11.70;;;4.75;;
69985;SDS011;57328;52.054;5.294;2022-11-20T06:06:52;14.73;;;6.35;;
69985;SDS011;57328;52.054;5.294;2022-11-20T06:09:19;16.27;;;6.50;;
69985;SDS011;57328;52.054;5.294;2022-11-20T06:11:47;13.90;;;5.35;;
69985;SDS011;57328;52.054;5.294;2022-11-20T06:14:14;14.90;;;5.97;;
69985;SDS011;57328;52.054;5.294;2022-11-20T06:16:41;15.30;;;6.43;;
69985;SDS011;57328;52.054;5.294;2022-11-20T06:19:09;15.45;;;6.80;;
69985;SDS011;57328;52.054;5.294;2022-11-20T06:21:36;15.88;;;6.65;;
69985;SDS011;57328;52.054;5.294;2022-11-20T06:24:03;14.48;;;5.93;;
69985;SDS011;57328;52.054;5.294;2022-11-20T06:26:31;15.80;;;6.25;;
69985;SDS011;57328;52.054;5.294;2022-11-20T06:28:58;12.68;;;5.38;;
69985;SDS011;57328;52.054;5.294;2022-11-20T06:31:25;15.68;;;6.40;;
69985;SDS011;57328;52.054;5.294;2022-11-20T06:33:53;16.45;;;5.97;;
69985;SDS011;57328;52.054;5.294;2022-11-20T06:36:21;14.15;;;5.75;;
69985;SDS011;57328;52.054;5.294;2022-11-20T06:38:48;14.18;;;5.68;;
69985;SDS011;57328;52.054;5.294;2022-11-20T06:41:16;13.32;;;5.72;;
69985;SDS011;57328;52.054;5.294;2022-11-20T06:43:44;15.15;;;6.00;;
69985;SDS011;57328;52.054;5.294;2022-11-20T06:46:11;14.25;;;6.03;;
69985;SDS011;57328;52.054;5.294;2022-11-20T06:48:39;14.35;;;6.43;;
69985;SDS011;57328;52.054;5.294;2022-11-20T06:51:07;15.23;;;6.15;;
69985;SDS011;57328;52.054;5.294;2022-11-20T06:53:34;11.88;;;5.25;;
69985;SDS011;57328;52.054;5.294;2022-11-20T06:56:02;15.32;;;6.05;;
69985;SDS011;57328;52.054;5.294;2022-11-20T06:58:30;18.00;;;6.53;;
69985;SDS011;57328;52.054;5.294;2022-11-20T07:00:58;16.08;;;6.10;;
69985;SDS011;57328;52.054;5.294;2022-11-20T07:03:26;13.32;;;4.97;;
69985;SDS011;57328;52.054;5.294;2022-11-20T07:05:56;18.05;;;6.78;;
69985;SDS011;57328;52.054;5.294;2022-11-20T07:08:24;10.80;;;4.57;;
69985;SDS011;57328;52.054;5.294;2022-11-20T07:10:51;17.77;;;6.95;;
69985;SDS011;57328;52.054;5.294;2022-11-20T07:13:19;16.25;;;6.63;;
69985;SDS011;57328;52.054;5.294;2022-11-20T07:15:46;14.38;;;6.07;;
69985;SDS011;57328;52.054;5.294;2022-11-20T07:18:13;15.65;;;6.32;;
69985;SDS011;57328;52.054;5.294;2022-11-20T07:20:40;17.63;;;6.05;;
69985;SDS011;57328;52.054;5.294;2022-11-20T07:23:07;16.67;;;6.10;;
69985;SDS011;57328;52.054;5.294;2022-11-20T07:25:34;15.82;;;6.40;;
69985;SDS011;57328;52.054;5.294;2022-11-20T07:28:02;15.32;;;6.43;;
69985;SDS011;57328;52.054;5.294;2022-11-20T07:30:30;16.58;;;6.65;;
69985;SDS011;57328;52.054;5.294;2022-11-20T07:32:57;16.00;;;6.47;;
69985;SDS011;57328;52.054;5.294;2022-11-20T07:35:24;14.63;;;6.13;;
69985;SDS011;57328;52.054;5.294;2022-11-20T07:37:52;14.45;;;6.07;;
69985;SDS011;57328;52.054;5.294;2022-11-20T07:40:19;17.55;;;6.90;;
69985;SDS011;57328;52.054;5.294;2022-11-20T07:42:47;14.45;;;6.03;;
69985;SDS011;57328;52.054;5.294;2022-11-20T07:45:14;18.00;;;6.50;;
69985;SDS011;57328;52.054;5.294;2022-11-20T07:47:42;14.65;;;5.70;;
69985;SDS011;57328;52.054;5.294;2022-11-20T07:50:09;15.50;;;6.85;;
69985;SDS011;57328;52.054;5.294;2022-11-20T07:52:37;12.38;;;4.40;;
69985;SDS011;57328;52.054;5.294;2022-11-20T07:55:04;11.23;;;4.38;;
69985;SDS011;57328;52.054;5.294;2022-11-20T07:57:31;21.48;;;8.13;;
69985;SDS011;57328;52.054;5.294;2022-11-20T07:59:58;18.33;;;7.72;;
69985;SDS011;57328;52.054;5.294;2022-11-20T08:02:26;17.85;;;7.72;;
69985;SDS011;57328;52.054;5.294;2022-11-20T08:04:53;18.70;;;7.97;;
69985;SDS011;57328;52.054;5.294;2022-11-20T08:07:20;22.58;;;9.20;;
69985;SDS011;57328;52.054;5.294;2022-11-20T08:09:48;19.50;;;8.90;;
69985;SDS011;57328;52.054;5.294;2022-11-20T08:12:16;20.05;;;9.50;;
69985;SDS011;57328;52.054;5.294;2022-11-20T08:15:03;20.13;;;8.40;;
69985;SDS011;57328;52.054;5.294;2022-11-20T08:17:38;22.00;;;9.30;;
69985;SDS011;57328;52.054;5.294;2022-11-20T08:20:05;21.85;;;9.15;;
69985;SDS011;57328;52.054;5.294;2022-11-20T08:22:32;25.48;;;9.90;;
69985;SDS011;57328;52.054;5.294;2022-11-20T08:24:59;23.33;;;9.73;;
69985;SDS011;57328;52.054;5.294;2022-11-20T08:27:27;18.90;;;8.68;;
69985;SDS011;57328;52.054;5.294;2022-11-20T08:29:54;21.85;;;9.20;;
69985;SDS011;57328;52.054;5.294;2022-11-20T08:32:21;22.23;;;10.25;;
69985;SDS011;57328;52.054;5.294;2022-11-20T08:34:48;24.77;;;10.50;;
69985;SDS011;57328;52.054;5.294;2022-11-20T08:37:16;20.10;;;8.20;;
69985;SDS011;57328;52.054;5.294;2022-11-20T08:39:43;23.00;;;9.45;;
69985;SDS011;57328;52.054;5.294;2022-11-20T08:42:10;22.23;;;9.50;;
69985;SDS011;57328;52.054;5.294;2022-11-20T08:44:37;23.65;;;9.85;;
69985;SDS011;57328;52.054;5.294;2022-11-20T08:47:04;21.75;;;9.60;;
69985;SDS011;57328;52.054;5.294;2022-11-20T08:49:32;26.10;;;10.90;;
69985;SDS011;57328;52.054;5.294;2022-11-20T08:52:00;23.45;;;10.50;;
69985;SDS011;57328;52.054;5.294;2022-11-20T08:54:27;22.48;;;9.93;;
69985;SDS011;57328;52.054;5.294;2022-11-20T08:56:54;19.45;;;8.57;;
69985;SDS011;57328;52.054;5.294;2022-11-20T08:59:24;21.85;;;8.60;;
69985;SDS011;57328;52.054;5.294;2022-11-20T09:02:12;24.52;;;10.23;;
69985;SDS011;57328;52.054;5.294;2022-11-20T09:04:39;22.35;;;10.13;;
69985;SDS011;57328;52.054;5.294;2022-11-20T09:07:06;21.25;;;9.07;;
69985;SDS011;57328;52.054;5.294;2022-11-20T09:09:34;25.55;;;10.45;;
69985;SDS011;57328;52.054;5.294;2022-11-20T09:12:01;24.65;;;10.68;;
69985;SDS011;57328;52.054;5.294;2022-11-20T09:14:28;21.17;;;10.15;;
69985;SDS011;57328;52.054;5.294;2022-11-20T09:16:56;26.30;;;10.77;;
69985;SDS011;57328;52.054;5.294;2022-11-20T09:19:24;21.55;;;9.32;;
69985;SDS011;57328;52.054;5.294;2022-11-20T09:22:06;21.20;;;9.90;;
69985;SDS011;57328;52.054;5.294;2022-11-20T09:24:33;26.40;;;9.55;;
69985;SDS011;57328;52.054;5.294;2022-11-20T09:27:03;26.13;;;11.50;;
69985;SDS011;57328;52.054;5.294;2022-11-20T09:29:31;23.83;;;10.38;;
69985;SDS011;57328;52.054;5.294;2022-11-20T09:31:59;25.92;;;10.75;;
69985;SDS011;57328;52.054;5.294;2022-11-20T09:34:26;23.88;;;11.05;;
69985;SDS011;57328;52.054;5.294;2022-11-20T09:36:57;24.98;;;10.65;;
69985;SDS011;57328;52.054;5.294;2022-11-20T09:39:29;15.75;;;7.43;;
69985;SDS011;57328;52.054;5.294;2022-11-20T09:44:52;23.30;;;9.52;;
69985;SDS011;57328;52.054;5.294;2022-11-20T09:55:12;20.85;;;9.23;;
69985;SDS011;57328;52.054;5.294;2022-11-20T09:57:42;27.00;;;11.40;;
69985;SDS011;57328;52.054;5.294;2022-11-20T10:00:14;22.85;;;10.30;;
69985;SDS011;57328;52.054;5.294;2022-11-20T10:02:49;23.60;;;10.80;;
69985;SDS011;57328;52.054;5.294;2022-11-20T10:05:21;24.55;;;10.68;;
69985;SDS011;57328;52.054;5.294;2022-11-20T10:11:05;25.55;;;10.43;;
69985;SDS011;57328;52.054;5.294;2022-11-20T10:27:06;27.38;;;12.27;;
69985;SDS011;57328;52.054;5.294;2022-11-20T10:29:43;27.10;;;12.18;;
69985;SDS011;57328;52.054;5.294;2022-11-20T10:32:15;22.90;;;9.93;;
69985;SDS011;57328;52.054;5.294;2022-11-20T10:37:18;26.67;;;11.82;;
69985;SDS011;57328;52.054;5.294;2022-11-20T10:39:51;25.08;;;11.43;;
69985;SDS011;57328;52.054;5.294;2022-11-20T10:42:26;23.10;;;11.20;;
69985;SDS011;57328;52.054;5.294;2022-11-20T10:44:58;25.75;;;11.00;;
69985;SDS011;57328;52.054;5.294;2022-11-20T10:47:32;26.48;;;11.60;;
69985;SDS011;57328;52.054;5.294;2022-11-20T10:50:04;29.70;;;13.05;;
69985;SDS011;57328;52.054;5.294;2022-11-20T10:52:36;25.65;;;11.65;;
69985;SDS011;57328;52.054;5.294;2022-11-20T11:00:39;32.22;;;13.75;;
69985;SDS011;57328;52.054;5.294;2022-11-20T11:03:20;28.10;;;12.30;;
69985;SDS011;57328;52.054;5.294;2022-11-20T11:08:55;27.83;;;11.75;;
69985;SDS011;57328;52.054;5.294;2022-11-20T11:11:24;28.13;;;11.38;;
69985;SDS011;57328;52.054;5.294;2022-11-20T11:13:53;24.35;;;10.38;;
69985;SDS011;57328;52.054;5.294;2022-11-20T11:16:24;29.00;;;12.57;;
69985;SDS011;57328;52.054;5.294;2022-11-20T11:18:51;26.77;;;11.82;;
69985;SDS011;57328;52.054;5.294;2022-11-20T11:21:22;27.70;;;11.90;;
69985;SDS011;57328;52.054;5.294;2022-11-20T11:24:00;26.83;;;11.05;;
69985;SDS011;57328;52.054;5.294;2022-11-20T11:27:10;28.88;;;12.18;;
69985;SDS011;57328;52.054;5.294;2022-11-20T11:29:42;28.58;;;12.15;;
69985;SDS011;57328;52.054;5.294;2022-11-20T11:32:18;27.90;;;12.10;;
69985;SDS011;57328;52.054;5.294;2022-11-20T11:35:06;26.42;;;11.05;;
69985;SDS011;57328;52.054;5.294;2022-11-20T11:37:34;33.28;;;14.27;;
69985;SDS011;57328;52.054;5.294;2022-11-20T11:40:02;25.85;;;10.05;;
69985;SDS011;57328;52.054;5.294;2022-11-20T11:42:54;30.88;;;13.15;;
69985;SDS011;57328;52.054;5.294;2022-11-20T11:45:23;31.48;;;13.70;;
69985;SDS011;57328;52.054;5.294;2022-11-20T11:47:51;31.65;;;15.23;;
69985;SDS011;57328;52.054;5.294;2022-11-20T11:50:26;31.50;;;12.57;;
69985;SDS011;57328;52.054;5.294;2022-11-20T11:53:12;31.02;;;13.55;;
69985;SDS011;57328;52.054;5.294;2022-11-20T11:55:42;31.10;;;12.48;;
69985;SDS011;57328;52.054;5.294;2022-11-20T12:06:27;41.42;;;16.70;;
69985;SDS011;57328;52.054;5.294;2022-11-20T12:08:59;37.65;;;14.40;;
69985;SDS011;57328;52.054;5.294;2022-11-20T12:11:43;40.30;;;13.77;;
69985;SDS011;57328;52.054;5.294;2022-11-20T12:14:34;43.42;;;17.35;;
69985;SDS011;57328;52.054;5.294;2022-11-20T12:17:00;63.00;;;26.50;;
69985;SDS011;57328;52.054;5.294;2022-11-20T12:19:29;46.50;;;18.85;;
69985;SDS011;57328;52.054;5.294;2022-11-20T12:30:09;40.10;;;17.02;;
69985;SDS011;57328;52.054;5.294;2022-11-20T12:46:06;23.75;;;9.23;;
69985;SDS011;57328;52.054;5.294;2022-11-20T12:48:41;31.75;;;13.15;;
69985;SDS011;57328;52.054;5.294;2022-11-20T12:56:25;23.58;;;9.60;;
69985;SDS011;57328;52.054;5.294;2022-11-20T12:59:07;30.67;;;12.25;;
69985;SDS011;57328;52.054;5.294;2022-11-20T13:01:40;34.15;;;14.60;;
69985;SDS011;57328;52.054;5.294;2022-11-20T13:06:48;31.05;;;10.25;;
69985;SDS011;57328;52.054;5.294;2022-11-20T13:09:16;24.33;;;9.52;;
69985;SDS011;57328;52.054;5.294;2022-11-20T13:11:47;29.02;;;9.77;;
69985;SDS011;57328;52.054;5.294;2022-11-20T13:19:34;39.97;;;15.30;;
69985;SDS011;57328;52.054;5.294;2022-11-20T13:22:01;32.72;;;12.98;;
69985;SDS011;57328;52.054;5.294;2022-11-20T13:24:29;44.10;;;16.42;;
69985;SDS011;57328;52.054;5.294;2022-11-20T13:29:31;33.65;;;11.20;;
69985;SDS011;57328;52.054;5.294;2022-11-20T13:32:15;28.35;;;10.57;;
69985;SDS011;57328;52.054;5.294;2022-11-20T13:37:27;29.45;;;11.88;;
69985;SDS011;57328;52.054;5.294;2022-11-20T13:42:35;27.60;;;10.18;;
69985;SDS011;57328;52.054;5.294;2022-11-20T13:45:09;39.90;;;14.15;;
69985;SDS011;57328;52.054;5.294;2022-11-20T13:47:37;39.53;;;15.75;;
69985;SDS011;57328;52.054;5.294;2022-11-20T13:50:04;41.75;;;14.93;;
69985;SDS011;57328;52.054;5.294;2022-11-20T13:57:57;35.53;;;13.70;;
69985;SDS011;57328;52.054;5.294;2022-11-20T14:00:26;23.55;;;9.35;;
69985;SDS011;57328;52.054;5.294;2022-11-20T14:05:35;31.00;;;10.95;;
69985;SDS011;57328;52.054;5.294;2022-11-20T14:10:30;31.05;;;11.95;;
69985;SDS011;57328;52.054;5.294;2022-11-20T14:12:58;26.58;;;9.43;;
69985;SDS011;57328;52.054;5.294;2022-11-20T14:15:29;45.75;;;17.17;;
69985;SDS011;57328;52.054;5.294;2022-11-20T14:17:57;48.65;;;17.58;;
69985;SDS011;57328;52.054;5.294;2022-11-20T14:20:25;30.85;;;10.68;;
69985;SDS011;57328;52.054;5.294;2022-11-20T14:22:54;42.03;;;15.55;;
69985;SDS011;57328;52.054;5.294;2022-11-20T14:25:23;53.78;;;19.23;;
69985;SDS011;57328;52.054;5.294;2022-11-20T14:27:53;51.40;;;18.20;;
69985;SDS011;57328;52.054;5.294;2022-11-20T14:30:23;42.78;;;16.55;;
69985;SDS011;57328;52.054;5.294;2022-11-20T14:32:51;32.35;;;11.43;;
69985;SDS011;57328;52.054;5.294;2022-11-20T14:35:21;41.08;;;15.35;;
69985;SDS011;57328;52.054;5.294;2022-11-20T14:37:50;31.40;;;11.68;;
69985;SDS011;57328;52.054;5.294;2022-11-20T14:40:35;31.92;;;12.98;;
69985;SDS011;57328;52.054;5.294;2022-11-20T14:46:05;37.15;;;13.43;;
69985;SDS011;57328;52.054;5.294;2022-11-20T14:48:37;40.60;;;15.02;;
69985;SDS011;57328;52.054;5.294;2022-11-20T14:51:05;38.75;;;15.10;;
69985;SDS011;57328;52.054;5.294;2022-11-20T14:53:32;43.47;;;16.63;;
69985;SDS011;57328;52.054;5.294;2022-11-20T14:56:00;37.45;;;14.77;;
69985;SDS011;57328;52.054;5.294;2022-11-20T14:58:29;41.05;;;15.38;;
69985;SDS011;57328;52.054;5.294;2022-11-20T15:00:59;44.67;;;15.85;;
69985;SDS011;57328;52.054;5.294;2022-11-20T15:03:33;43.67;;;15.70;;
69985;SDS011;57328;52.054;5.294;2022-11-20T15:06:01;46.13;;;17.30;;
69985;SDS011;57328;52.054;5.294;2022-11-20T15:08:28;33.53;;;14.07;;
69985;SDS011;57328;52.054;5.294;2022-11-20T15:10:56;47.22;;;19.02;;
69985;SDS011;57328;52.054;5.294;2022-11-20T15:13:29;41.20;;;16.95;;
69985;SDS011;57328;52.054;5.294;2022-11-20T15:15:57;49.08;;;19.38;;
69985;SDS011;57328;52.054;5.294;2022-11-20T15:18:29;41.72;;;15.10;;
69985;SDS011;57328;52.054;5.294;2022-11-20T15:21:00;41.67;;;16.38;;
69985;SDS011;57328;52.054;5.294;2022-11-20T15:23:28;36.78;;;12.60;;
69985;SDS011;57328;52.054;5.294;2022-11-20T15:25:55;36.55;;;11.43;;
69985;SDS011;57328;52.054;5.294;2022-11-20T15:30:54;32.95;;;12.23;;
69985;SDS011;57328;52.054;5.294;2022-11-20T15:33:22;28.23;;;11.70;;
69985;SDS011;57328;52.054;5.294;2022-11-20T15:35:49;18.67;;;8.68;;
69985;SDS011;57328;52.054;5.294;2022-11-20T15:38:17;31.10;;;12.25;;
69985;SDS011;57328;52.054;5.294;2022-11-20T15:40:44;23.92;;;9.75;;
69985;SDS011;57328;52.054;5.294;2022-11-20T15:43:11;32.75;;;12.45;;
69985;SDS011;57328;52.054;5.294;2022-11-20T15:45:46;32.70;;;15.23;;
69985;SDS011;57328;52.054;5.294;2022-11-20T15:48:21;36.47;;;13.95;;
69985;SDS011;57328;52.054;5.294;2022-11-20T15:53:35;30.45;;;12.88;;
69985;SDS011;57328;52.054;5.294;2022-11-20T15:56:04;27.27;;;10.75;;
69985;SDS011;57328;52.054;5.294;2022-11-20T15:58:32;32.80;;;13.27;;
69985;SDS011;57328;52.054;5.294;2022-11-20T16:00:59;23.02;;;9.57;;
69985;SDS011;57328;52.054;5.294;2022-11-20T16:03:26;30.40;;;12.75;;
69985;SDS011;57328;52.054;5.294;2022-11-20T16:05:53;27.88;;;12.48;;
69985;SDS011;57328;52.054;5.294;2022-11-20T16:08:20;31.27;;;13.25;;
69985;SDS011;57328;52.054;5.294;2022-11-20T16:10:48;28.73;;;12.73;;
69985;SDS011;57328;52.054;5.294;2022-11-20T16:13:16;27.65;;;12.23;;
69985;SDS011;57328;52.054;5.294;2022-11-20T16:16:06;37.08;;;14.38;;
69985;SDS011;57328;52.054;5.294;2022-11-20T16:18:36;35.70;;;14.00;;
69985;SDS011;57328;52.054;5.294;2022-11-20T16:21:03;24.42;;;11.20;;
69985;SDS011;57328;52.054;5.294;2022-11-20T16:23:31;26.70;;;11.13;;
69985;SDS011;57328;52.054;5.294;2022-11-20T16:25:59;30.50;;;11.75;;
69985;SDS011;57328;52.054;5.294;2022-11-20T16:28:26;29.48;;;12.40;;
69985;SDS011;57328;52.054;5.294;2022-11-20T16:30:53;29.23;;;12.40;;
69985;SDS011;57328;52.054;5.294;2022-11-20T16:33:20;34.38;;;13.93;;
69985;SDS011;57328;52.054;5.294;2022-11-20T16:35:48;29.15;;;10.82;;
69985;SDS011;57328;52.054;5.294;2022-11-20T16:38:15;32.53;;;12.68;;